sensor_id;sensor_type;location;lat;lon;timestamp;pressure;altitude;pressure_sealevel;temperature;humidity
57900;BME280;60605;53.716;19.940;2023-07-31T00:01:11;99602.02;;;15.79;100.00
57900;BME280;60605;53.716;19.940;2023-07-31T00:06:15;99599.98;;;15.78;100.00
57900;BME280;60605;53.716;19.940;2023-07-31T00:11:18;99597.80;;;15.77;100.00
57900;BME280;60605;53.716;19.940;2023-07-31T00:16:21;99601.41;;;15.77;100.00
57900;BME280;60605;53.716;19.940;2023-07-31T00:21:25;99596.39;;;15.75;100.00
57900;BME280;60605;53.716;19.940;2023-07-31T00:26:28;99596.62;;;15.74;100.00
57900;BME280;60605;53.716;19.940;2023-07-31T00:31:31;99599.95;;;15.74;100.00
57900;BME280;60605;53.716;19.940;2023-07-31T00:36:35;99602.71;;;15.76;100.00
57900;BME280;60605;53.716;19.940;2023-07-31T00:41:39;99601.73;;;15.78;100.00
57900;BME280;60605;53.716;19.940;2023-07-31T00:46:42;99605.40;;;15.76;100.00
57900;BME280;60605;53.716;19.940;2023-07-31T00:51:46;99604.32;;;15.74;100.00
57900;BME280;60605;53.716;19.940;2023-07-31T00:56:50;99598.99;;;15.72;100.00
57900;BME280;60605;53.716;19.940;2023-07-31T01:01:55;99599.98;;;15.70;100.00
57900;BME280;60605;53.716;19.940;2023-07-31T01:07:22;99613.27;;;15.66;100.00
57900;BME280;60605;53.716;19.940;2023-07-31T01:12:31;99620.02;;;15.70;100.00
57900;BME280;60605;53.716;19.940;2023-07-31T01:17:34;99619.56;;;15.79;100.00
57900;BME280;60605;53.716;19.940;2023-07-31T01:28:20;99617.73;;;15.90;100.00
57900;BME280;60605;53.716;19.940;2023-07-31T01:33:27;99619.94;;;15.91;100.00
57900;BME280;60605;53.716;19.940;2023-07-31T01:38:31;99616.88;;;15.95;100.00
57900;BME280;60605;53.716;19.940;2023-07-31T01:43:34;99608.86;;;15.99;100.00
57900;BME280;60605;53.716;19.940;2023-07-31T01:48:38;99602.89;;;16.04;100.00
57900;BME280;60605;53.716;19.940;2023-07-31T01:53:41;99597.38;;;16.06;100.00
57900;BME280;60605;53.716;19.940;2023-07-31T01:58:44;99601.91;;;16.08;100.00
57900;BME280;60605;53.716;19.940;2023-07-31T02:03:48;99601.25;;;16.09;100.00
57900;BME280;60605;53.716;19.940;2023-07-31T02:08:51;99602.33;;;16.10;100.00
57900;BME280;60605;53.716;19.940;2023-07-31T02:13:54;99606.61;;;16.12;100.00
57900;BME280;60605;53.716;19.940;2023-07-31T02:18:57;99604.66;;;16.13;100.00
57900;BME280;60605;53.716;19.940;2023-07-31T02:24:01;99608.33;;;16.14;100.00
57900;BME280;60605;53.716;19.940;2023-07-31T02:29:04;99608.08;;;16.17;100.00
57900;BME280;60605;53.716;19.940;2023-07-31T02:34:07;99608.17;;;16.20;100.00
57900;BME280;60605;53.716;19.940;2023-07-31T02:39:10;99600.23;;;16.22;100.00
57900;BME280;60605;53.716;19.940;2023-07-31T02:44:14;99598.04;;;16.21;100.00
57900;BME280;60605;53.716;19.940;2023-07-31T02:49:17;99600.77;;;16.18;100.00
57900;BME280;60605;53.716;19.940;2023-07-31T02:54:20;99602.76;;;16.15;100.00
57900;BME280;60605;53.716;19.940;2023-07-31T02:59:25;99613.94;;;16.14;100.00
57900;BME280;60605;53.716;19.940;2023-07-31T03:04:28;99612.48;;;16.11;100.00
57900;BME280;60605;53.716;19.940;2023-07-31T03:09:31;99607.64;;;16.10;100.00
57900;BME280;60605;53.716;19.940;2023-07-31T03:14:35;99602.61;;;16.11;100.00
57900;BME280;60605;53.716;19.940;2023-07-31T03:19:38;99610.44;;;16.14;100.00
57900;BME280;60605;53.716;19.940;2023-07-31T03:24:41;99617.64;;;16.16;100.00
57900;BME280;60605;53.716;19.940;2023-07-31T03:29:44;99628.08;;;16.16;100.00
57900;BME280;60605;53.716;19.940;2023-07-31T03:34:49;99634.69;;;16.15;100.00
57900;BME280;60605;53.716;19.940;2023-07-31T03:39:52;99636.89;;;16.12;100.00
57900;BME280;60605;53.716;19.940;2023-07-31T03:44:56;99634.92;;;16.11;100.00
57900;BME280;60605;53.716;19.940;2023-07-31T03:49:59;99638.08;;;16.10;100.00
57900;BME280;60605;53.716;19.940;2023-07-31T03:55:03;99643.27;;;16.10;100.00
57900;BME280;60605;53.716;19.940;2023-07-31T04:00:07;99643.41;;;16.12;100.00
57900;BME280;60605;53.716;19.940;2023-07-31T04:05:11;99650.90;;;16.15;100.00
57900;BME280;60605;53.716;19.940;2023-07-31T04:10:14;99653.92;;;16.19;100.00
57900;BME280;60605;53.716;19.940;2023-07-31T04:15:17;99661.27;;;16.25;100.00
57900;BME280;60605;53.716;19.940;2023-07-31T04:20:21;99663.91;;;16.32;100.00
57900;BME280;60605;53.716;19.940;2023-07-31T04:25:24;99664.69;;;16.42;100.00
57900;BME280;60605;53.716;19.940;2023-07-31T04:30:28;99670.45;;;16.56;100.00
57900;BME280;60605;53.716;19.940;2023-07-31T04:35:31;99681.71;;;16.74;100.00
57900;BME280;60605;53.716;19.940;2023-07-31T04:40:34;99689.02;;;17.01;100.00
57900;BME280;60605;53.716;19.940;2023-07-31T04:45:38;99693.95;;;17.64;100.00
57900;BME280;60605;53.716;19.940;2023-07-31T04:50:42;99700.32;;;18.62;100.00
57900;BME280;60605;53.716;19.940;2023-07-31T04:55:45;99707.81;;;19.95;100.00
57900;BME280;60605;53.716;19.940;2023-07-31T05:00:48;99711.27;;;21.60;100.00
57900;BME280;60605;53.716;19.940;2023-07-31T05:05:52;99720.06;;;23.17;97.85
57900;BME280;60605;53.716;19.940;2023-07-31T05:10:55;99728.10;;;24.43;89.26
57900;BME280;60605;53.716;19.940;2023-07-31T05:15:59;99734.00;;;25.14;81.48
57900;BME280;60605;53.716;19.940;2023-07-31T05:21:05;99741.14;;;26.10;76.62
57900;BME280;60605;53.716;19.940;2023-07-31T05:26:08;99744.00;;;27.08;71.79
57900;BME280;60605;53.716;19.940;2023-07-31T05:31:14;99743.02;;;27.93;67.06
57900;BME280;60605;53.716;19.940;2023-07-31T05:36:18;99745.70;;;28.14;62.70
57900;BME280;60605;53.716;19.940;2023-07-31T05:41:21;99740.88;;;27.48;62.12
57900;BME280;60605;53.716;19.940;2023-07-31T05:46:25;99737.33;;;26.78;63.17
57900;BME280;60605;53.716;19.940;2023-07-31T05:51:28;99736.45;;;27.03;63.36
57900;BME280;60605;53.716;19.940;2023-07-31T05:56:31;99746.00;;;27.91;60.96
57900;BME280;60605;53.716;19.940;2023-07-31T06:01:37;99750.17;;;28.03;60.00
57900;BME280;60605;53.716;19.940;2023-07-31T06:06:40;99754.09;;;28.06;58.78
57900;BME280;60605;53.716;19.940;2023-07-31T06:11:44;99757.75;;;28.64;58.69
57900;BME280;60605;53.716;19.940;2023-07-31T06:16:47;99754.80;;;29.27;56.14
57900;BME280;60605;53.716;19.940;2023-07-31T06:21:50;99760.10;;;30.24;53.68
57900;BME280;60605;53.716;19.940;2023-07-31T06:26:54;99765.43;;;30.58;52.47
57900;BME280;60605;53.716;19.940;2023-07-31T06:31:57;99765.14;;;31.61;50.77
57900;BME280;60605;53.716;19.940;2023-07-31T06:37:04;99767.05;;;32.42;48.53
57900;BME280;60605;53.716;19.940;2023-07-31T06:42:08;99771.34;;;33.08;45.88
57900;BME280;60605;53.716;19.940;2023-07-31T06:47:11;99764.35;;;33.76;43.98
57900;BME280;60605;53.716;19.940;2023-07-31T06:52:15;99768.67;;;34.20;42.38
57900;BME280;60605;53.716;19.940;2023-07-31T06:57:18;99769.64;;;34.60;41.10
57900;BME280;60605;53.716;19.940;2023-07-31T07:02:22;99763.69;;;35.22;40.58
57900;BME280;60605;53.716;19.940;2023-07-31T07:07:26;99760.81;;;36.00;38.25
57900;BME280;60605;53.716;19.940;2023-07-31T07:12:30;99759.13;;;36.64;36.01
57900;BME280;60605;53.716;19.940;2023-07-31T07:17:35;99761.98;;;37.27;34.81
57900;BME280;60605;53.716;19.940;2023-07-31T07:22:39;99759.28;;;37.95;34.01
57900;BME280;60605;53.716;19.940;2023-07-31T07:27:43;79809.42;;;5.22;26.32
57900;BME280;60605;53.716;19.940;2023-07-31T07:32:46;-1.00;;;-128.00;-1.00
57900;BME280;60605;53.716;19.940;2023-07-31T07:37:49;-1.00;;;-128.00;-1.00
57900;BME280;60605;53.716;19.940;2023-07-31T07:42:55;19952.09;;;-94.65;5.70
57900;BME280;60605;53.716;19.940;2023-07-31T07:48:00;-1.00;;;-128.00;-1.00
57900;BME280;60605;53.716;19.940;2023-07-31T07:53:03;-1.00;;;-128.00;-1.00
57900;BME280;60605;53.716;19.940;2023-07-31T07:58:08;-1.00;;;-128.00;-1.00
57900;BME280;60605;53.716;19.940;2023-07-31T08:03:11;-1.00;;;-128.00;-1.00
57900;BME280;60605;53.716;19.940;2023-07-31T08:08:16;-1.00;;;-128.00;-1.00
57900;BME280;60605;53.716;19.940;2023-07-31T08:13:20;-1.00;;;-128.00;-1.00
57900;BME280;60605;53.716;19.940;2023-07-31T08:18:24;-1.00;;;-128.00;-1.00
57900;BME280;60605;53.716;19.940;2023-07-31T08:23:28;-1.00;;;-128.00;-1.00
57900;BME280;60605;53.716;19.940;2023-07-31T08:28:32;-1.00;;;-128.00;-1.00
57900;BME280;60605;53.716;19.940;2023-07-31T08:33:37;-1.00;;;-128.00;-1.00
57900;BME280;60605;53.716;19.940;2023-07-31T08:38:42;-1.00;;;-128.00;-1.00
57900;BME280;60605;53.716;19.940;2023-07-31T08:43:46;39895.73;;;-60.51;9.84
57900;BME280;60605;53.716;19.940;2023-07-31T08:48:51;99734.58;;;40.05;26.34
57900;BME280;60605;53.716;19.940;2023-07-31T08:53:55;99731.52;;;39.18;26.68
57900;BME280;60605;53.716;19.940;2023-07-31T08:59:02;99730.54;;;38.92;28.22
57900;BME280;60605;53.716;19.940;2023-07-31T09:04:09;99725.86;;;38.40;27.75
57900;BME280;60605;53.716;19.940;2023-07-31T09:09:14;99724.45;;;37.41;28.80
57900;BME280;60605;53.716;19.940;2023-07-31T09:14:18;99723.73;;;36.80;30.24
57900;BME280;60605;53.716;19.940;2023-07-31T09:19:32;99722.58;;;36.97;30.43
57900;BME280;60605;53.716;19.940;2023-07-31T09:24:37;99718.10;;;37.15;28.94
57900;BME280;60605;53.716;19.940;2023-07-31T09:29:41;99718.51;;;35.62;30.38
57900;BME280;60605;53.716;19.940;2023-07-31T09:34:44;99716.16;;;33.60;32.91
57900;BME280;60605;53.716;19.940;2023-07-31T09:39:48;99715.08;;;32.41;34.98
57900;BME280;60605;53.716;19.940;2023-07-31T09:44:51;99708.64;;;32.68;35.33
57900;BME280;60605;53.716;19.940;2023-07-31T09:49:55;99701.46;;;33.34;35.14
57900;BME280;60605;53.716;19.940;2023-07-31T09:54:58;99701.45;;;33.32;34.24
57900;BME280;60605;53.716;19.940;2023-07-31T10:00:01;99704.45;;;32.59;34.69
57900;BME280;60605;53.716;19.940;2023-07-31T10:05:07;99701.45;;;31.56;35.95
57900;BME280;60605;53.716;19.940;2023-07-31T10:10:11;99699.86;;;30.53;36.97
57900;BME280;60605;53.716;19.940;2023-07-31T10:15:16;99691.80;;;29.90;37.55
57900;BME280;60605;53.716;19.940;2023-07-31T10:20:21;99686.69;;;29.98;38.13
57900;BME280;60605;53.716;19.940;2023-07-31T10:25:26;99685.33;;;30.21;38.30
57900;BME280;60605;53.716;19.940;2023-07-31T10:30:32;99678.77;;;30.38;38.48
57900;BME280;60605;53.716;19.940;2023-07-31T10:35:37;99683.70;;;30.51;37.86
57900;BME280;60605;53.716;19.940;2023-07-31T10:40:40;99678.57;;;30.61;38.02
57900;BME280;60605;53.716;19.940;2023-07-31T10:45:44;99675.09;;;30.41;37.50
57900;BME280;60605;53.716;19.940;2023-07-31T10:50:50;99670.70;;;30.09;38.11
57900;BME280;60605;53.716;19.940;2023-07-31T10:55:58;99664.00;;;30.05;39.04
57900;BME280;60605;53.716;19.940;2023-07-31T11:01:05;99664.45;;;30.23;39.23
57900;BME280;60605;53.716;19.940;2023-07-31T11:06:09;99663.33;;;30.26;38.58
57900;BME280;60605;53.716;19.940;2023-07-31T11:11:18;99664.79;;;30.19;38.64
57900;BME280;60605;53.716;19.940;2023-07-31T11:16:24;99660.56;;;30.06;39.11
57900;BME280;60605;53.716;19.940;2023-07-31T11:21:28;99657.70;;;29.99;38.98
57900;BME280;60605;53.716;19.940;2023-07-31T11:26:31;99656.16;;;29.79;39.34
57900;BME280;60605;53.716;19.940;2023-07-31T11:31:42;99653.23;;;29.37;39.41
57900;BME280;60605;53.716;19.940;2023-07-31T11:36:55;99650.98;;;28.83;40.91
57900;BME280;60605;53.716;19.940;2023-07-31T11:41:59;99647.87;;;28.69;42.10
57900;BME280;60605;53.716;19.940;2023-07-31T11:47:04;99645.14;;;28.65;42.01
57900;BME280;60605;53.716;19.940;2023-07-31T11:52:10;99640.39;;;28.48;42.55
57900;BME280;60605;53.716;19.940;2023-07-31T11:57:15;99640.51;;;28.21;42.74
57900;BME280;60605;53.716;19.940;2023-07-31T12:02:21;99636.00;;;28.03;43.00
57900;BME280;60605;53.716;19.940;2023-07-31T12:07:25;99626.42;;;28.13;43.93
57900;BME280;60605;53.716;19.940;2023-07-31T12:12:28;99618.16;;;28.21;44.18
57900;BME280;60605;53.716;19.940;2023-07-31T12:17:32;99610.95;;;28.22;44.48
57900;BME280;60605;53.716;19.940;2023-07-31T12:22:35;99604.41;;;28.00;44.44
57900;BME280;60605;53.716;19.940;2023-07-31T12:27:39;99608.86;;;27.41;44.53
57900;BME280;60605;53.716;19.940;2023-07-31T12:32:42;99603.25;;;26.59;45.41
57900;BME280;60605;53.716;19.940;2023-07-31T12:37:47;99596.30;;;25.79;46.54
57900;BME280;60605;53.716;19.940;2023-07-31T12:42:50;99593.08;;;25.00;48.29
57900;BME280;60605;53.716;19.940;2023-07-31T12:47:54;99592.27;;;24.30;50.03
57900;BME280;60605;53.716;19.940;2023-07-31T12:52:57;99593.00;;;23.75;51.71
57900;BME280;60605;53.716;19.940;2023-07-31T12:58:02;99593.33;;;23.36;53.22
57900;BME280;60605;53.716;19.940;2023-07-31T13:03:08;99594.33;;;23.04;54.20
57900;BME280;60605;53.716;19.940;2023-07-31T13:08:12;99628.44;;;22.63;56.80
57900;BME280;60605;53.716;19.940;2023-07-31T13:13:15;99647.02;;;21.92;62.70
57900;BME280;60605;53.716;19.940;2023-07-31T13:18:19;99653.33;;;21.16;66.78
57900;BME280;60605;53.716;19.940;2023-07-31T13:23:22;99657.34;;;20.57;70.72
57900;BME280;60605;53.716;19.940;2023-07-31T13:28:26;99661.29;;;20.13;73.63
57900;BME280;60605;53.716;19.940;2023-07-31T13:33:29;99656.37;;;19.86;75.49
57900;BME280;60605;53.716;19.940;2023-07-31T13:38:39;99641.48;;;19.67;77.08
57900;BME280;60605;53.716;19.940;2023-07-31T13:43:43;99627.80;;;19.49;77.63
57900;BME280;60605;53.716;19.940;2023-07-31T13:48:46;99619.73;;;19.39;78.82
57900;BME280;60605;53.716;19.940;2023-07-31T13:53:50;99618.08;;;19.38;79.63
57900;BME280;60605;53.716;19.940;2023-07-31T13:58:53;99615.98;;;19.45;80.74
57900;BME280;60605;53.716;19.940;2023-07-31T14:03:57;99602.86;;;19.51;80.88
57900;BME280;60605;53.716;19.940;2023-07-31T14:09:02;99596.66;;;19.52;80.36
57900;BME280;60605;53.716;19.940;2023-07-31T14:14:06;99595.20;;;19.56;80.58
57900;BME280;60605;53.716;19.940;2023-07-31T14:19:09;99592.66;;;19.64;80.36
57900;BME280;60605;53.716;19.940;2023-07-31T14:24:14;99587.10;;;19.65;80.00
57900;BME280;60605;53.716;19.940;2023-07-31T14:29:17;99579.42;;;19.67;79.84
57900;BME280;60605;53.716;19.940;2023-07-31T14:34:20;99574.14;;;19.91;79.74
57900;BME280;60605;53.716;19.940;2023-07-31T14:39:23;99571.66;;;20.24;78.43
57900;BME280;60605;53.716;19.940;2023-07-31T14:44:27;99572.21;;;20.56;76.64
57900;BME280;60605;53.716;19.940;2023-07-31T14:49:30;99563.08;;;20.79;74.74
57900;BME280;60605;53.716;19.940;2023-07-31T14:54:34;99559.25;;;20.82;73.78
57900;BME280;60605;53.716;19.940;2023-07-31T14:59:37;99558.57;;;20.68;73.68
57900;BME280;60605;53.716;19.940;2023-07-31T15:04:41;99557.72;;;20.54;74.22
57900;BME280;60605;53.716;19.940;2023-07-31T15:09:44;99554.14;;;20.44;74.26
57900;BME280;60605;53.716;19.940;2023-07-31T15:14:49;99552.33;;;20.45;74.64
57900;BME280;60605;53.716;19.940;2023-07-31T15:19:52;99544.16;;;20.47;74.38
57900;BME280;60605;53.716;19.940;2023-07-31T15:24:56;99539.55;;;20.53;73.95
57900;BME280;60605;53.716;19.940;2023-07-31T15:30:00;99537.30;;;20.52;73.42
57900;BME280;60605;53.716;19.940;2023-07-31T15:35:06;99538.80;;;20.47;73.63
57900;BME280;60605;53.716;19.940;2023-07-31T15:40:10;99535.23;;;20.48;74.31
57900;BME280;60605;53.716;19.940;2023-07-31T15:45:14;99536.50;;;20.68;74.80
57900;BME280;60605;53.716;19.940;2023-07-31T15:50:18;99532.98;;;20.93;74.57
57900;BME280;60605;53.716;19.940;2023-07-31T15:55:21;99528.05;;;21.13;73.75
57900;BME280;60605;53.716;19.940;2023-07-31T16:00:27;99525.20;;;21.24;73.10
57900;BME280;60605;53.716;19.940;2023-07-31T16:05:31;99521.16;;;21.20;72.75
57900;BME280;60605;53.716;19.940;2023-07-31T16:10:36;99521.48;;;21.00;72.59
57900;BME280;60605;53.716;19.940;2023-07-31T16:15:43;99517.25;;;20.85;73.43
57900;BME280;60605;53.716;19.940;2023-07-31T16:20:46;99513.11;;;20.82;74.14
57900;BME280;60605;53.716;19.940;2023-07-31T16:25:50;99508.66;;;20.74;74.02
57900;BME280;60605;53.716;19.940;2023-07-31T16:30:54;99509.27;;;20.75;74.44
57900;BME280;60605;53.716;19.940;2023-07-31T16:35:58;99508.48;;;20.84;74.78
57900;BME280;60605;53.716;19.940;2023-07-31T16:41:01;99511.19;;;20.89;74.57
57900;BME280;60605;53.716;19.940;2023-07-31T16:46:05;99510.67;;;20.99;74.64
57900;BME280;60605;53.716;19.940;2023-07-31T16:51:09;99515.97;;;21.01;74.25
57900;BME280;60605;53.716;19.940;2023-07-31T16:56:13;99522.48;;;20.97;74.03
57900;BME280;60605;53.716;19.940;2023-07-31T17:01:16;99523.52;;;20.89;74.19
57900;BME280;60605;53.716;19.940;2023-07-31T17:06:20;99516.64;;;20.77;74.44
57900;BME280;60605;53.716;19.940;2023-07-31T17:11:24;99513.77;;;20.60;74.78
57900;BME280;60605;53.716;19.940;2023-07-31T17:16:28;99509.77;;;20.41;75.34
57900;BME280;60605;53.716;19.940;2023-07-31T17:21:32;99511.48;;;20.28;75.97
57900;BME280;60605;53.716;19.940;2023-07-31T17:26:36;99513.13;;;20.22;76.47
57900;BME280;60605;53.716;19.940;2023-07-31T17:31:39;99510.63;;;20.24;76.87
57900;BME280;60605;53.716;19.940;2023-07-31T17:36:45;99507.70;;;20.31;76.39
57900;BME280;60605;53.716;19.940;2023-07-31T17:41:48;99508.45;;;20.31;76.12
57900;BME280;60605;53.716;19.940;2023-07-31T17:46:51;99510.13;;;20.24;76.13
57900;BME280;60605;53.716;19.940;2023-07-31T17:51:55;99512.30;;;20.08;76.77
57900;BME280;60605;53.716;19.940;2023-07-31T17:56:58;99518.44;;;19.86;77.85
57900;BME280;60605;53.716;19.940;2023-07-31T18:02:03;99508.98;;;19.61;78.97
57900;BME280;60605;53.716;19.940;2023-07-31T18:07:07;99493.81;;;19.39;79.70
57900;BME280;60605;53.716;19.940;2023-07-31T18:12:11;99492.80;;;19.15;80.50
57900;BME280;60605;53.716;19.940;2023-07-31T18:17:14;99492.61;;;18.89;81.73
57900;BME280;60605;53.716;19.940;2023-07-31T18:22:19;99498.33;;;18.66;83.40
57900;BME280;60605;53.716;19.940;2023-07-31T18:27:23;99497.66;;;18.44;84.37
57900;BME280;60605;53.716;19.940;2023-07-31T18:32:26;99497.27;;;18.25;85.47
57900;BME280;60605;53.716;19.940;2023-07-31T18:37:30;99502.38;;;18.05;87.13
57900;BME280;60605;53.716;19.940;2023-07-31T18:42:33;99496.81;;;17.87;88.27
57900;BME280;60605;53.716;19.940;2023-07-31T18:47:37;99499.73;;;17.73;89.65
57900;BME280;60605;53.716;19.940;2023-07-31T18:52:41;99502.20;;;17.63;90.72
57900;BME280;60605;53.716;19.940;2023-07-31T18:57:45;99506.36;;;17.57;91.04
57900;BME280;60605;53.716;19.940;2023-07-31T19:02:49;99511.10;;;17.52;91.68
57900;BME280;60605;53.716;19.940;2023-07-31T19:07:53;99513.91;;;17.48;92.30
57900;BME280;60605;53.716;19.940;2023-07-31T19:12:56;99511.91;;;17.50;93.20
57900;BME280;60605;53.716;19.940;2023-07-31T19:18:02;99506.21;;;17.54;93.47
57900;BME280;60605;53.716;19.940;2023-07-31T19:23:07;99500.23;;;17.60;93.42
57900;BME280;60605;53.716;19.940;2023-07-31T19:28:10;99490.02;;;17.65;93.82
57900;BME280;60605;53.716;19.940;2023-07-31T19:33:14;99478.83;;;17.74;94.23
57900;BME280;60605;53.716;19.940;2023-07-31T19:38:17;99475.02;;;17.84;94.05
57900;BME280;60605;53.716;19.940;2023-07-31T19:43:21;99473.79;;;17.90;93.81
57900;BME280;60605;53.716;19.940;2023-07-31T19:48:24;99474.36;;;17.96;93.52
57900;BME280;60605;53.716;19.940;2023-07-31T19:53:28;99468.55;;;17.98;93.47
57900;BME280;60605;53.716;19.940;2023-07-31T19:58:32;99463.00;;;18.00;93.12
57900;BME280;60605;53.716;19.940;2023-07-31T20:03:36;99455.85;;;17.95;93.01
57900;BME280;60605;53.716;19.940;2023-07-31T20:08:40;99451.01;;;17.90;93.39
57900;BME280;60605;53.716;19.940;2023-07-31T20:13:45;99446.05;;;17.85;93.30
57900;BME280;60605;53.716;19.940;2023-07-31T20:18:49;99441.83;;;17.79;93.67
57900;BME280;60605;53.716;19.940;2023-07-31T20:23:52;99431.35;;;17.75;94.00
57900;BME280;60605;53.716;19.940;2023-07-31T20:28:56;99428.45;;;17.73;94.16
57900;BME280;60605;53.716;19.940;2023-07-31T20:34:00;99420.93;;;17.67;93.86
57900;BME280;60605;53.716;19.940;2023-07-31T20:39:03;99415.80;;;17.60;94.52
57900;BME280;60605;53.716;19.940;2023-07-31T20:44:08;99413.30;;;17.54;94.74
57900;BME280;60605;53.716;19.940;2023-07-31T20:49:11;99415.69;;;17.48;94.83
57900;BME280;60605;53.716;19.940;2023-07-31T20:54:15;99413.15;;;17.45;95.52
57900;BME280;60605;53.716;19.940;2023-07-31T20:59:18;99406.31;;;17.47;95.55
57900;BME280;60605;53.716;19.940;2023-07-31T21:04:22;99400.61;;;17.54;95.65
57900;BME280;60605;53.716;19.940;2023-07-31T21:09:26;99393.77;;;17.60;95.10
57900;BME280;60605;53.716;19.940;2023-07-31T21:14:30;99390.86;;;17.64;94.90
57900;BME280;60605;53.716;19.940;2023-07-31T21:19:34;99390.05;;;17.67;94.69
57900;BME280;60605;53.716;19.940;2023-07-31T21:24:37;99379.53;;;17.70;94.38
57900;BME280;60605;53.716;19.940;2023-07-31T21:29:40;99377.23;;;17.73;94.20
57900;BME280;60605;53.716;19.940;2023-07-31T21:34:45;99374.58;;;17.73;94.01
57900;BME280;60605;53.716;19.940;2023-07-31T21:39:49;99366.64;;;17.70;94.07
57900;BME280;60605;53.716;19.940;2023-07-31T21:44:52;99366.27;;;17.65;94.11
57900;BME280;60605;53.716;19.940;2023-07-31T21:49:56;99361.53;;;17.62;94.24
57900;BME280;60605;53.716;19.940;2023-07-31T21:55:01;99359.50;;;17.60;94.43
57900;BME280;60605;53.716;19.940;2023-07-31T22:00:08;99355.68;;;17.59;94.71
57900;BME280;60605;53.716;19.940;2023-07-31T22:05:12;99356.81;;;17.62;95.07
57900;BME280;60605;53.716;19.940;2023-07-31T22:10:15;99345.46;;;17.69;95.12
57900;BME280;60605;53.716;19.940;2023-07-31T22:15:22;99336.53;;;17.81;95.10
57900;BME280;60605;53.716;19.940;2023-07-31T22:20:26;99327.46;;;17.93;94.65
57900;BME280;60605;53.716;19.940;2023-07-31T22:25:29;99321.95;;;18.06;93.98
57900;BME280;60605;53.716;19.940;2023-07-31T22:30:33;99319.03;;;18.18;93.13
57900;BME280;60605;53.716;19.940;2023-07-31T22:35:37;99314.79;;;18.26;92.35
57900;BME280;60605;53.716;19.940;2023-07-31T22:40:40;99314.52;;;18.32;91.76
57900;BME280;60605;53.716;19.940;2023-07-31T22:45:45;99306.17;;;18.35;91.28
57900;BME280;60605;53.716;19.940;2023-07-31T22:50:49;99302.88;;;18.38;90.89
57900;BME280;60605;53.716;19.940;2023-07-31T22:55:53;99298.02;;;18.39;90.58
57900;BME280;60605;53.716;19.940;2023-07-31T23:01:05;99291.08;;;18.40;90.32
57900;BME280;60605;53.716;19.940;2023-07-31T23:06:09;99285.92;;;18.39;90.20
57900;BME280;60605;53.716;19.940;2023-07-31T23:11:12;99281.34;;;18.42;90.21
57900;BME280;60605;53.716;19.940;2023-07-31T23:16:15;99274.00;;;18.44;89.80
57900;BME280;60605;53.716;19.940;2023-07-31T23:21:18;99271.12;;;18.44;89.81
57900;BME280;60605;53.716;19.940;2023-07-31T23:26:22;99265.83;;;18.44;89.78
57900;BME280;60605;53.716;19.940;2023-07-31T23:31:25;99259.02;;;18.45;89.54
57900;BME280;60605;53.716;19.940;2023-07-31T23:36:29;99254.10;;;18.44;89.31
57900;BME280;60605;53.716;19.940;2023-07-31T23:41:32;99254.34;;;18.45;89.23
57900;BME280;60605;53.716;19.940;2023-07-31T23:46:36;99252.35;;;18.44;89.11
57900;BME280;60605;53.716;19.940;2023-07-31T23:51:41;99250.14;;;18.40;89.08
57900;BME280;60605;53.716;19.940;2023-07-31T23:56:45;99242.44;;;18.39;88.93
